createdAt,value
2023-01-17T00:00:17.376Z,59.88
2023-01-17T00:03:59.418Z,59.99
2023-01-17T00:07:41.553Z,60.06
2023-01-17T00:11:03.143Z,59.99
2023-01-17T00:14:24.970Z,60.17
2023-01-17T00:17:46.954Z,60.09
2023-01-17T00:21:25.246Z,60.20
2023-01-17T00:25:05.526Z,60.18
2023-01-17T00:28:26.937Z,60.22
2023-01-17T00:31:47.440Z,60.23
2023-01-17T00:35:08.489Z,60.50
2023-01-17T00:38:30.588Z,60.20
2023-01-17T00:41:52.323Z,60.36
2023-01-17T00:45:31.246Z,60.50
2023-01-17T00:49:10.639Z,60.24
2023-01-17T00:52:49.694Z,60.45
2023-01-17T00:56:28.499Z,60.53
2023-01-17T01:00:08.741Z,60.59
2023-01-17T01:03:47.701Z,60.68
2023-01-17T01:07:26.598Z,60.92
2023-01-17T01:11:07.212Z,60.91
2023-01-17T01:14:46.186Z,60.87
2023-01-17T01:18:27.844Z,60.99
2023-01-17T01:22:06.751Z,61.39
2023-01-17T01:25:45.538Z,61.56
2023-01-17T01:29:24.362Z,61.80
2023-01-17T01:33:03.656Z,62.11
2023-01-17T01:36:26.435Z,62.19
2023-01-17T01:39:48.303Z,62.24
2023-01-17T01:43:13.367Z,62.14
2023-01-17T01:46:39.579Z,62.29
2023-01-17T01:50:04.159Z,62.61
2023-01-17T01:53:27.393Z,62.77
2023-01-17T01:56:52.465Z,62.69
2023-01-17T02:00:18.576Z,62.90
2023-01-17T02:03:42.013Z,63.15
2023-01-17T02:07:08.284Z,63.22
2023-01-17T02:10:32.931Z,63.32
2023-01-17T02:13:54.568Z,63.90
2023-01-17T02:17:26.585Z,63.90
2023-01-17T02:21:05.484Z,64.07
2023-01-17T02:25:04.705Z,64.67
2023-01-17T02:28:47.081Z,64.16
2023-01-17T02:32:15.554Z,64.36
2023-01-17T02:35:48.610Z,64.52
2023-01-17T02:39:15.398Z,64.61
2023-01-17T02:42:40.878Z,64.38
2023-01-17T02:46:02.297Z,64.92
2023-01-17T02:49:29.481Z,64.65
2023-01-17T02:53:08.814Z,64.86
2023-01-17T02:56:42.934Z,64.87
2023-01-17T03:00:14.014Z,64.79
2023-01-17T03:03:40.298Z,64.78
2023-01-17T03:07:09.329Z,65.19
2023-01-17T03:10:32.653Z,65.38
2023-01-17T03:13:56.755Z,65.30
2023-01-17T03:17:18.670Z,65.24
2023-01-17T03:20:40.424Z,65.57
2023-01-17T03:24:03.575Z,65.28
2023-01-17T03:27:25.097Z,65.91
2023-01-17T03:30:46.742Z,65.83
2023-01-17T03:34:08.422Z,66.19
2023-01-17T03:37:29.955Z,66.10
2023-01-17T03:40:53.238Z,66.12
2023-01-17T03:44:14.959Z,66.12
2023-01-17T03:47:36.915Z,66.46
2023-01-17T03:50:58.675Z,65.96
2023-01-17T03:54:20.100Z,66.56
2023-01-17T03:57:43.099Z,66.68
2023-01-17T04:01:04.722Z,66.28
2023-01-17T04:04:26.425Z,66.23
2023-01-17T04:07:48.155Z,66.51
2023-01-17T04:11:09.986Z,66.32
2023-01-17T04:14:33.037Z,66.68
2023-01-17T04:17:54.863Z,66.60
2023-01-17T04:21:16.202Z,66.84
2023-01-17T04:24:37.836Z,66.84
2023-01-17T04:28:01.304Z,66.74
2023-01-17T04:31:24.197Z,66.52
2023-01-17T04:34:45.920Z,66.83
2023-01-17T04:38:07.626Z,66.65
2023-01-17T04:41:29.446Z,66.56
2023-01-17T04:44:51.191Z,66.63
2023-01-17T04:48:14.459Z,66.88
2023-01-17T04:51:35.814Z,67.04
2023-01-17T04:54:57.629Z,66.66
2023-01-17T04:58:19.370Z,66.74
2023-01-17T05:01:41.025Z,66.47
2023-01-17T05:05:04.162Z,66.67
2023-01-17T05:08:25.889Z,66.45
2023-01-17T05:11:47.538Z,66.30
2023-01-17T05:15:10.333Z,66.64
2023-01-17T05:18:31.966Z,66.79
2023-01-17T05:21:54.775Z,66.91
2023-01-17T05:25:16.610Z,67.10
2023-01-17T05:28:38.010Z,67.15
2023-01-17T05:31:59.961Z,67.43
2023-01-17T05:35:23.687Z,68.42
2023-01-17T05:38:46.216Z,68.75
2023-01-17T05:42:07.704Z,69.41
2023-01-17T05:45:31.074Z,70.29
2023-01-17T05:48:52.937Z,70.70
2023-01-17T05:52:14.969Z,71.18
2023-01-17T05:55:39.007Z,71.74
2023-01-17T05:59:00.839Z,72.30
2023-01-17T06:02:22.529Z,72.35
2023-01-17T06:05:44.959Z,72.50
2023-01-17T06:09:06.448Z,72.80
2023-01-17T06:12:29.615Z,72.62
2023-01-17T06:15:51.393Z,72.97
2023-01-17T06:19:12.985Z,73.38
2023-01-17T06:22:34.840Z,73.46
2023-01-17T06:25:56.666Z,73.50
2023-01-17T06:29:19.928Z,73.54
2023-01-17T06:32:41.607Z,73.68
2023-01-17T06:36:03.303Z,73.39
2023-01-17T06:39:25.381Z,73.59
2023-01-17T06:42:47.370Z,73.48
2023-01-17T06:46:10.711Z,73.48
2023-01-17T06:49:32.560Z,73.28
2023-01-17T06:52:59.540Z,73.27
2023-01-17T06:56:21.646Z,72.71
2023-01-17T06:59:43.230Z,72.40
2023-01-17T07:03:06.687Z,71.72
2023-01-17T07:06:28.917Z,71.85
2023-01-17T07:09:50.670Z,71.60
2023-01-17T07:13:12.457Z,71.68
2023-01-17T07:16:35.331Z,71.65
2023-01-17T07:19:58.613Z,71.56
2023-01-17T07:23:22.466Z,71.21
2023-01-17T07:26:44.174Z,70.84
2023-01-17T07:30:06.249Z,70.29
2023-01-17T07:33:27.855Z,69.77
2023-01-17T07:36:50.995Z,69.57
2023-01-17T07:40:13.425Z,69.49
2023-01-17T07:43:36.558Z,69.50
2023-01-17T07:46:59.791Z,69.74
2023-01-17T07:50:21.186Z,69.90
2023-01-17T07:53:44.286Z,70.08
2023-01-17T07:57:05.596Z,70.07
2023-01-17T08:00:27.735Z,70.08
2023-01-17T08:03:54.838Z,70.12
2023-01-17T08:07:16.787Z,70.30
2023-01-17T08:10:40.085Z,70.69
2023-01-17T08:14:01.820Z,70.63
2023-01-17T08:17:23.713Z,71.30
2023-01-17T08:20:45.575Z,71.61
2023-01-17T08:24:07.959Z,71.91
2023-01-17T08:27:31.002Z,71.98
2023-01-17T08:30:52.437Z,72.41
2023-01-17T08:34:15.197Z,72.77
2023-01-17T08:37:37.769Z,71.92
2023-01-17T08:41:01.570Z,71.63
2023-01-17T08:44:24.741Z,71.85
2023-01-17T08:47:46.446Z,71.00
2023-01-17T08:51:08.521Z,69.49
2023-01-17T08:54:30.235Z,69.75
2023-01-17T08:57:52.382Z,69.57
2023-01-17T09:01:16.143Z,69.30
2023-01-17T09:04:37.498Z,69.79
2023-01-17T09:08:00.547Z,68.61
2023-01-17T09:11:22.015Z,68.01
2023-01-17T09:14:43.732Z,67.96
2023-01-17T09:18:07.048Z,67.81
2023-01-17T09:21:28.847Z,67.26
2023-01-17T09:24:50.614Z,67.24
2023-01-17T09:28:12.327Z,66.94
2023-01-17T09:31:34.098Z,67.04
2023-01-17T09:34:57.887Z,66.78
2023-01-17T09:38:21.692Z,66.49
2023-01-17T09:41:49.866Z,66.93
2023-01-17T09:45:17.548Z,66.52
2023-01-17T09:48:40.367Z,66.57
2023-01-17T09:52:03.500Z,66.25
2023-01-17T09:55:25.351Z,66.66
2023-01-17T09:58:54.174Z,66.43
2023-01-17T10:02:34.486Z,66.43
2023-01-17T10:06:04.395Z,66.52
2023-01-17T10:09:45.775Z,67.38
2023-01-17T10:13:28.041Z,68.24
2023-01-17T10:16:56.639Z,68.24
2023-01-17T10:20:33.997Z,68.55
2023-01-17T10:24:21.858Z,68.50
2023-01-17T10:27:51.190Z,68.07
2023-01-17T10:31:20.064Z,67.88
2023-01-17T10:34:46.389Z,67.37
2023-01-17T10:38:14.021Z,66.95
2023-01-17T10:41:43.643Z,67.31
2023-01-17T10:45:16.561Z,66.42
2023-01-17T10:48:40.712Z,66.38
2023-01-17T10:52:16.747Z,66.94
2023-01-17T10:55:43.945Z,67.05
2023-01-17T10:59:18.866Z,67.18
2023-01-17T11:02:47.562Z,67.60
2023-01-17T11:06:17.686Z,68.06
2023-01-17T11:09:41.345Z,67.25
2023-01-17T11:13:03.410Z,66.61
2023-01-17T11:16:28.672Z,66.77
2023-01-17T11:19:52.405Z,66.72
2023-01-17T11:23:16.962Z,66.36
2023-01-17T11:26:47.441Z,66.75
2023-01-17T11:30:18.072Z,66.30
2023-01-17T11:33:53.740Z,65.18
2023-01-17T11:37:22.829Z,65.43
2023-01-17T11:40:46.002Z,65.14
2023-01-17T11:44:22.747Z,65.84
2023-01-17T11:47:44.502Z,65.85
2023-01-17T11:51:25.293Z,65.78
2023-01-17T11:54:49.524Z,66.43
2023-01-17T11:58:15.485Z,66.70
2023-01-17T12:01:42.347Z,66.51
2023-01-17T12:05:18.385Z,65.55
2023-01-17T12:08:57.183Z,65.36
2023-01-17T12:12:45.070Z,65.71
2023-01-17T12:16:32.949Z,65.98
2023-01-17T12:20:01.403Z,65.07
2023-01-17T12:23:38.695Z,64.91
2023-01-17T12:27:10.107Z,64.92
2023-01-17T12:30:43.966Z,65.29
2023-01-17T12:34:20.939Z,66.66
2023-01-17T12:37:45.046Z,66.77
2023-01-17T12:41:12.673Z,66.78
2023-01-17T12:44:45.885Z,67.82
2023-01-17T12:48:13.107Z,68.20
2023-01-17T12:51:38.732Z,69.11
2023-01-17T12:55:07.414Z,69.36
2023-01-17T12:58:36.775Z,69.51
2023-01-17T13:02:00.703Z,69.95
2023-01-17T13:05:29.162Z,70.14
2023-01-17T13:08:54.318Z,70.27
2023-01-17T13:12:19.072Z,70.63
2023-01-17T13:15:41.251Z,71.17
2023-01-17T13:19:10.055Z,71.31
2023-01-17T13:22:33.847Z,71.54
2023-01-17T13:25:57.025Z,70.96
2023-01-17T13:29:32.334Z,71.79
2023-01-17T13:33:22.762Z,71.51
2023-01-17T13:37:00.130Z,71.75
2023-01-17T13:40:37.466Z,71.56
2023-01-17T13:44:19.275Z,71.59
2023-01-17T13:47:42.536Z,71.49
2023-01-17T13:51:05.087Z,71.14
2023-01-17T13:54:32.847Z,70.60
2023-01-17T13:57:55.626Z,70.10
2023-01-17T14:01:53.142Z,69.51
2023-01-17T14:05:17.541Z,69.09
2023-01-17T14:08:45.936Z,68.28
2023-01-17T14:12:26.400Z,68.49
2023-01-17T14:15:52.160Z,67.59
2023-01-17T14:19:27.144Z,67.05
2023-01-17T14:22:52.013Z,66.31
2023-01-17T14:26:36.619Z,66.62
2023-01-17T14:29:59.491Z,66.50
2023-01-17T14:33:28.466Z,66.46
2023-01-17T14:36:50.288Z,66.37
2023-01-17T14:40:20.439Z,66.06
2023-01-17T14:43:44.147Z,66.51
2023-01-17T14:47:06.183Z,66.77
2023-01-17T14:50:30.806Z,66.63
2023-01-17T14:53:57.159Z,66.78
2023-01-17T14:57:28.647Z,66.49
2023-01-17T15:00:53.165Z,65.70
2023-01-17T15:04:28.921Z,65.20
2023-01-17T15:07:53.899Z,64.65
2023-01-17T15:11:20.207Z,64.80
2023-01-17T15:14:45.846Z,64.52
2023-01-17T15:18:20.439Z,64.17
2023-01-17T15:21:44.106Z,63.86
2023-01-17T15:25:11.041Z,63.80
2023-01-17T15:28:34.534Z,63.34
2023-01-17T15:31:58.753Z,63.49
2023-01-17T15:35:21.551Z,63.04
2023-01-17T15:39:00.231Z,63.40
2023-01-17T15:42:25.396Z,63.32
2023-01-17T15:45:56.096Z,63.50
2023-01-17T15:49:20.515Z,63.93
2023-01-17T15:52:49.945Z,63.48
2023-01-17T15:56:23.321Z,63.82
2023-01-17T15:59:48.889Z,63.89
2023-01-17T16:03:23.547Z,64.16
2023-01-17T16:06:46.830Z,64.39
2023-01-17T16:10:14.739Z,65.20
2023-01-17T16:13:38.576Z,65.11
2023-01-17T16:17:03.687Z,65.55
2023-01-17T16:20:30.886Z,66.24
2023-01-17T16:23:53.165Z,66.41
2023-01-17T16:27:15.118Z,66.78
2023-01-17T16:30:37.846Z,67.13
2023-01-17T16:34:00.761Z,67.07
2023-01-17T16:37:22.976Z,66.84
2023-01-17T16:40:46.180Z,68.22
2023-01-17T16:44:07.958Z,68.20
2023-01-17T16:47:29.685Z,67.62
2023-01-17T16:50:53.234Z,68.85
2023-01-17T16:54:14.913Z,68.48
2023-01-17T16:57:37.554Z,68.84
2023-01-17T17:01:00.279Z,68.39
2023-01-17T17:04:22.508Z,69.18
2023-01-17T17:07:50.708Z,69.49
2023-01-17T17:11:16.503Z,70.16
2023-01-17T17:14:37.938Z,70.04
2023-01-17T17:18:00.401Z,69.99
2023-01-17T17:21:22.326Z,70.25
2023-01-17T17:24:45.543Z,70.41
2023-01-17T17:28:07.846Z,70.63
2023-01-17T17:31:29.828Z,70.92
2023-01-17T17:34:51.663Z,70.49
2023-01-17T17:38:12.903Z,71.15
2023-01-17T17:41:39.199Z,71.17
2023-01-17T17:45:01.094Z,71.70
2023-01-17T17:48:22.915Z,71.33
2023-01-17T17:51:45.446Z,71.43
2023-01-17T17:55:08.030Z,71.66
2023-01-17T17:58:31.685Z,71.67
2023-01-17T18:01:53.648Z,71.67
2023-01-17T18:05:15.138Z,71.93
2023-01-17T18:08:37.588Z,71.74
2023-01-17T18:11:59.465Z,71.96
2023-01-17T18:15:24.159Z,72.09
2023-01-17T18:18:47.803Z,72.07
2023-01-17T18:22:09.407Z,71.66
2023-01-17T18:25:31.155Z,72.03
2023-01-17T18:28:53.992Z,71.25
2023-01-17T18:32:17.093Z,71.25
2023-01-17T18:35:38.363Z,71.10
2023-01-17T18:39:00.046Z,71.20
2023-01-17T18:42:23.425Z,70.86
2023-01-17T18:45:44.909Z,71.37
2023-01-17T18:49:08.507Z,71.05
2023-01-17T18:52:30.350Z,71.47
2023-01-17T18:55:57.199Z,71.83
2023-01-17T18:59:19.693Z,71.72
2023-01-17T19:02:41.317Z,72.61
2023-01-17T19:06:05.803Z,72.24
2023-01-17T19:09:27.949Z,72.76
2023-01-17T19:12:50.126Z,73.17
2023-01-17T19:16:15.368Z,73.47
2023-01-17T19:19:38.125Z,73.25
2023-01-17T19:23:01.194Z,73.03
2023-01-17T19:26:23.944Z,73.25
2023-01-17T19:29:45.565Z,73.20
2023-01-17T19:33:07.592Z,72.85
2023-01-17T19:36:33.562Z,72.70
2023-01-17T19:39:56.468Z,73.65
2023-01-17T19:43:18.322Z,73.73
2023-01-17T19:46:41.096Z,73.66
2023-01-17T19:50:02.651Z,73.93
2023-01-17T19:53:25.052Z,74.42
2023-01-17T19:56:48.207Z,73.81
2023-01-17T20:00:13.527Z,74.10
2023-01-17T20:03:34.862Z,74.23
2023-01-17T20:06:56.095Z,74.71
2023-01-17T20:10:19.037Z,74.15
2023-01-17T20:13:42.103Z,74.75
2023-01-17T20:17:04.612Z,74.04
2023-01-17T20:20:26.234Z,75.22
2023-01-17T20:23:48.882Z,74.64
2023-01-17T20:27:10.788Z,75.70
2023-01-17T20:30:34.607Z,74.64
2023-01-17T20:33:57.250Z,75.24
2023-01-17T20:37:18.825Z,75.51
2023-01-17T20:40:41.061Z,74.83
2023-01-17T20:44:04.565Z,76.15
2023-01-17T20:47:29.654Z,75.97
2023-01-17T20:50:51.173Z,75.22
2023-01-17T20:54:14.967Z,76.47
2023-01-17T20:57:36.682Z,76.41
2023-01-17T21:00:59.673Z,76.63
2023-01-17T21:04:25.914Z,76.78
2023-01-17T21:07:47.594Z,76.15
2023-01-17T21:11:12.410Z,76.40
2023-01-17T21:14:34.235Z,75.62
2023-01-17T21:17:55.755Z,76.17
2023-01-17T21:21:21.997Z,76.52
2023-01-17T21:24:43.883Z,75.78
2023-01-17T21:28:06.836Z,76.57
2023-01-17T21:31:30.574Z,76.47
2023-01-17T21:34:52.984Z,75.99
2023-01-17T21:38:16.417Z,76.75
2023-01-17T21:41:39.931Z,77.04
2023-01-17T21:45:01.240Z,76.76
2023-01-17T21:48:23.477Z,76.57
2023-01-17T21:52:02.819Z,75.80
2023-01-17T21:55:42.854Z,77.04
2023-01-17T21:59:04.502Z,77.25
2023-01-17T22:02:26.483Z,77.64
2023-01-17T22:05:48.081Z,76.82
2023-01-17T22:09:09.730Z,76.79
2023-01-17T22:12:33.721Z,76.51
2023-01-17T22:15:59.529Z,77.20
2023-01-17T22:19:21.180Z,77.34
2023-01-17T22:22:42.993Z,76.75
2023-01-17T22:26:05.763Z,76.77
2023-01-17T22:29:29.620Z,76.13
2023-01-17T22:32:51.265Z,77.08
2023-01-17T22:36:14.731Z,76.86
2023-01-17T22:39:38.174Z,76.46
2023-01-17T22:43:00.260Z,75.79
2023-01-17T22:46:24.956Z,75.88
2023-01-17T22:49:46.631Z,76.07
2023-01-17T22:53:08.559Z,76.38
2023-01-17T22:56:32.429Z,76.87
2023-01-17T22:59:54.127Z,76.49
2023-01-17T23:03:17.409Z,76.54
2023-01-17T23:06:41.021Z,76.97
2023-01-17T23:10:02.663Z,76.17
2023-01-17T23:13:24.413Z,76.13
2023-01-17T23:17:06.827Z,76.72
2023-01-17T23:20:29.680Z,76.01
2023-01-17T23:23:51.457Z,76.19
2023-01-17T23:27:32.868Z,76.91
2023-01-17T23:30:54.331Z,76.98
2023-01-17T23:34:16.045Z,76.34
2023-01-17T23:37:56.576Z,75.97
2023-01-17T23:41:35.509Z,76.69
2023-01-17T23:44:57.350Z,76.12
2023-01-17T23:48:19.727Z,76.02
2023-01-17T23:51:41.179Z,76.10
2023-01-17T23:55:04.565Z,76.50
2023-01-17T23:58:28.662Z,76.05
